Time;durP1;ratioP1;P1;durP2;ratioP2;P2;SDS_P1;SDS_P2;PMS_P1;PMS_P2;Temp;Humidity;BMP_temperature;BMP_pressure;BME280_temperature;BME280_humidity;BME280_pressure;Samples;Min_cycle;Max_cycle;Signal;HPM_P1;HPM_P2
2022/08/16 04:01:03;;;;;;;6.87;5.17;;;13.10;96.30;;;;;;5638545;23;20508;-80
2022/08/16 04:03:30;;;;;;;5.33;4.93;;;13.20;96.30;;;;;;4948573;28;20468;-81
2022/08/16 04:05:55;;;;;;;6.10;5.50;;;13.10;96.30;;;;;;4948674;29;20422;-81
2022/08/16 04:08:22;;;;;;;5.03;4.63;;;13.10;96.30;;;;;;4939948;29;20415;-80
2022/08/16 04:10:48;;;;;;;12.63;5.27;;;13.20;96.30;;;;;;4956030;28;20194;-80
2022/08/16 04:13:14;;;;;;;5.93;5.33;;;13.20;96.30;;;;;;4976759;28;20417;-81
2022/08/16 04:15:40;;;;;;;5.13;4.67;;;13.30;96.30;;;;;;4978175;28;20406;-80
2022/08/16 04:18:06;;;;;;;6.23;5.23;;;13.20;96.30;;;;;;4959679;28;20252;-80
2022/08/16 04:20:32;;;;;;;5.60;5.10;;;13.20;96.30;;;;;;4976906;28;20201;-80
2022/08/16 04:22:58;;;;;;;5.97;5.03;;;13.20;96.30;;;;;;4959168;28;20186;-80
2022/08/16 04:25:24;;;;;;;6.70;4.90;;;13.30;96.30;;;;;;4959067;28;20469;-77
2022/08/16 04:27:50;;;;;;;8.57;5.00;;;13.40;96.30;;;;;;4974998;28;20820;-78
2022/08/16 04:30:18;;;;;;;4.97;4.57;;;13.40;96.30;;;;;;4975158;28;20854;-79
2022/08/16 04:32:44;;;;;;;6.10;4.33;;;13.40;96.30;;;;;;4957870;28;20665;-80
2022/08/16 04:35:15;;;;;;;8.00;4.47;;;13.50;96.30;;;;;;4957948;28;20944;-78
2022/08/16 04:37:41;;;;;;;6.70;4.77;;;13.50;96.30;;;;;;4975653;28;20390;-78
2022/08/16 04:40:08;;;;;;;7.93;5.03;;;13.70;96.30;;;;;;4957157;28;20456;-77
2022/08/16 04:42:37;;;;;;;5.00;4.60;;;14.00;96.30;;;;;;4975190;28;20224;-78
2022/08/16 04:45:03;;;;;;;7.90;5.03;;;14.20;96.30;;;;;;4974839;28;20457;-78
2022/08/16 04:47:30;;;;;;;5.00;4.33;;;14.70;96.30;;;;;;4974739;28;20437;-77
2022/08/16 04:49:56;;;;;;;7.23;4.77;;;15.20;96.30;;;;;;4974468;28;20402;-80
2022/08/16 04:52:21;;;;;;;6.30;4.53;;;15.40;96.30;;;;;;4974874;28;20433;-77
2022/08/16 04:54:47;;;;;;;4.20;3.80;;;15.60;96.30;;;;;;4974797;28;20624;-79
2022/08/16 04:57:12;;;;;;;5.13;4.40;;;15.80;96.30;;;;;;4957532;28;20725;-78
2022/08/16 04:59:38;;;;;;;4.53;4.10;;;15.80;96.30;;;;;;4974367;28;20232;-77
2022/08/16 05:02:03;;;;;;;7.73;3.83;;;15.70;96.30;;;;;;4974453;28;20213;-77
2022/08/16 05:04:30;;;;;;;5.17;3.27;;;15.70;96.30;;;;;;4976712;28;20237;-80
2022/08/16 05:06:56;;;;;;;6.17;4.27;;;15.80;96.30;;;;;;4978086;28;20171;-81
2022/08/16 05:09:22;;;;;;;5.00;3.90;;;15.80;96.30;;;;;;4974062;28;20422;-78
2022/08/16 05:11:47;;;;;;;4.90;4.00;;;15.80;96.30;;;;;;4974480;28;20529;-77
2022/08/16 05:14:13;;;;;;;5.73;3.57;;;15.70;96.30;;;;;;4974475;28;20241;-81
2022/08/16 05:16:38;;;;;;;6.40;4.00;;;15.70;96.30;;;;;;4974523;28;20244;-77
2022/08/16 05:19:05;;;;;;;6.37;3.80;;;15.70;96.30;;;;;;4973785;28;20229;-77
2022/08/16 05:21:31;;;;;;;5.13;4.03;;;15.60;96.30;;;;;;4974235;28;20721;-77
2022/08/16 05:23:57;;;;;;;7.83;4.20;;;15.60;96.30;;;;;;4956898;28;20485;-78
2022/08/16 05:26:24;;;;;;;5.80;4.10;;;15.60;96.30;;;;;;4974082;28;20424;-77
2022/08/16 05:28:50;;;;;;;7.43;3.87;;;15.70;96.30;;;;;;4973675;28;20445;-78
2022/08/16 05:31:16;;;;;;;5.53;4.03;;;15.70;96.30;;;;;;4974019;28;20437;-78
2022/08/16 05:33:42;;;;;;;3.70;3.37;;;15.70;96.30;;;;;;4974066;28;20174;-78
2022/08/16 05:36:08;;;;;;;7.07;3.77;;;16.00;96.30;;;;;;4973980;28;21055;-77
2022/08/16 05:38:34;;;;;;;5.60;3.90;;;17.00;96.30;;;;;;4973469;28;20417;-77
2022/08/16 05:41:01;;;;;;;6.80;3.63;;;18.50;96.30;;;;;;4973728;28;20560;-77
2022/08/16 05:43:27;;;;;;;6.50;3.20;;;19.90;96.30;;;;;;4973855;28;20717;-77
2022/08/16 05:45:54;;;;;;;4.70;3.00;;;21.40;96.30;;;;;;4973861;28;20775;-77
2022/08/16 05:48:20;;;;;;;7.00;3.30;;;22.30;96.30;;;;;;4973274;28;20500;-77
2022/08/16 05:50:46;;;;;;;3.50;3.20;;;23.60;96.30;;;;;;4973781;28;20440;-77
2022/08/16 05:53:11;;;;;;;4.37;3.10;;;24.60;96.30;;;;;;4973783;28;20413;-79
2022/08/16 05:55:37;;;;;;;5.87;3.00;;;25.40;96.30;;;;;;4973577;28;20253;-77
2022/08/16 05:58:03;;;;;;;7.73;2.73;;;26.00;95.10;;;;;;4973129;28;20170;-80
2022/08/16 06:00:28;;;;;;;8.60;3.07;;;26.00;94.70;;;;;;4973582;28;20194;-77
2022/08/16 06:02:56;;;;;;;3.70;3.10;;;25.70;96.20;;;;;;4973723;28;20158;-77
2022/08/16 06:05:21;;;;;;;5.10;2.90;;;26.20;94.60;;;;;;4975633;28;20591;-81
2022/08/16 06:07:47;;;;;;;6.63;3.40;;;25.70;95.80;;;;;;4976029;28;20926;-78
2022/08/16 06:10:13;;;;;;;5.87;3.40;;;25.40;96.30;;;;;;4976687;28;20535;-81
2022/08/16 06:12:39;;;;;;;4.47;2.70;;;25.90;95.10;;;;;;4959640;28;20316;-80
2022/08/16 06:15:10;;;;;;;5.27;2.80;;;26.90;93.30;;;;;;4976413;28;20193;-81
2022/08/16 06:17:36;;;;;;;6.40;3.27;;;27.90;89.20;;;;;;4976214;28;20420;-81
2022/08/16 06:20:04;;;;;;;3.20;3.00;;;28.50;87.20;;;;;;4974997;28;20413;-81
2022/08/16 06:22:30;;;;;;;4.73;3.20;;;28.20;87.50;;;;;;4958149;28;20481;-81
2022/08/16 06:24:55;;;;;;;3.60;3.30;;;28.30;87.60;;;;;;4975594;28;20460;-80
2022/08/16 06:27:21;;;;;;;6.03;3.03;;;28.60;86.60;;;;;;4958501;28;20173;-81
2022/08/16 06:29:46;;;;;;;5.83;2.97;;;28.80;85.40;;;;;;4975875;28;20186;-81
2022/08/16 06:32:12;;;;;;;4.30;2.97;;;28.00;89.10;;;;;;4959424;28;20725;-80
2022/08/16 06:34:37;;;;;;;5.53;2.70;;;27.70;91.00;;;;;;4958804;28;20681;-81
2022/08/16 06:37:03;;;;;;;9.93;3.43;;;29.10;86.60;;;;;;4958395;28;20849;-81
2022/08/16 06:39:29;;;;;;;3.97;3.00;;;29.00;86.40;;;;;;4975129;28;20239;-81
2022/08/16 06:41:56;;;;;;;2.47;2.20;;;30.20;82.70;;;;;;4958347;28;20201;-81
2022/08/16 06:44:21;;;;;;;7.87;2.37;;;31.00;81.30;;;;;;4958254;28;20201;-81
2022/08/16 06:46:47;;;;;;;3.08;2.78;;;30.90;79.90;;;;;;4975567;28;20521;-81
2022/08/16 06:49:12;;;;;;;2.78;2.35;;;29.80;81.20;;;;;;4974115;28;20272;-81
2022/08/16 06:51:40;;;;;;;4.32;3.05;;;30.50;80.50;;;;;;4957826;28;20204;-82
2022/08/16 06:54:07;;;;;;;16.30;2.65;;;30.70;81.30;;;;;;4959297;28;20181;-81
2022/08/16 06:56:33;;;;;;;7.57;2.78;;;30.90;80.10;;;;;;4977417;28;20814;-82
2022/08/16 06:58:59;;;;;;;2.40;2.00;;;31.60;81.20;;;;;;4974567;28;20601;-80
2022/08/16 07:01:25;;;;;;;3.92;2.13;;;32.40;75.10;;;;;;4956800;28;20213;-82
2022/08/16 07:03:51;;;;;;;7.43;3.13;;;33.10;74.50;;;;;;4972959;28;20190;-81
2022/08/16 07:06:18;;;;;;;3.22;2.75;;;33.70;73.70;;;;;;4957127;28;20188;-81
2022/08/16 07:08:45;;;;;;;2.30;2.00;;;34.30;72.40;;;;;;4975030;28;20173;-81
2022/08/16 07:11:12;;;;;;;5.78;2.55;;;34.10;69.70;;;;;;4960296;28;20228;-82
2022/08/16 07:13:38;;;;;;;4.80;2.03;;;34.00;71.60;;;;;;4960671;28;20205;-81
2022/08/16 07:16:04;;;;;;;2.30;2.10;;;33.80;68.50;;;;;;4960603;28;20561;-81
2022/08/16 07:18:31;;;;;;;7.13;2.50;;;34.00;71.10;;;;;;4959754;28;20184;-81
2022/08/16 07:20:57;;;;;;;3.05;2.17;;;34.00;68.80;;;;;;4977746;28;20697;-81
2022/08/16 07:23:24;;;;;;;4.97;2.13;;;35.10;69.00;;;;;;4977915;28;20170;-81
2022/08/16 07:25:49;;;;;;;4.85;2.47;;;35.30;65.40;;;;;;4977701;28;20183;-82
2022/08/16 07:28:17;;;;;;;7.88;2.45;;;34.90;66.50;;;;;;4977346;28;20178;-81
2022/08/16 07:30:44;;;;;;;3.63;2.20;;;34.70;67.20;;;;;;4960788;28;20737;-81
2022/08/16 07:33:10;;;;;;;4.90;2.42;;;34.60;68.00;;;;;;4960501;28;20269;-80
2022/08/16 07:35:37;;;;;;;8.25;2.17;;;33.60;69.90;;;;;;4960072;28;20518;-80
2022/08/16 07:38:05;;;;;;;8.63;2.40;;;33.80;70.50;;;;;;4960072;28;20183;-82
2022/08/16 07:40:31;;;;;;;3.17;2.33;;;34.30;69.80;;;;;;4977643;28;20748;-81
2022/08/16 07:42:57;;;;;;;3.45;2.28;;;34.00;67.20;;;;;;4977991;28;20553;-80
2022/08/16 07:45:22;;;;;;;15.63;3.22;;;34.30;69.70;;;;;;4978121;28;20214;-81
2022/08/16 07:47:48;;;;;;;2.58;2.13;;;34.20;67.70;;;;;;4960756;28;20178;-78
2022/08/16 07:50:15;;;;;;;3.97;2.42;;;34.10;67.90;;;;;;4960354;28;20182;-82
2022/08/16 07:52:41;;;;;;;5.93;2.50;;;34.10;68.80;;;;;;4960658;28;20521;-80
2022/08/16 07:55:08;;;;;;;7.55;2.50;;;34.40;67.80;;;;;;4960386;28;20305;-81
2022/08/16 07:57:34;;;;;;;2.78;2.20;;;34.50;66.80;;;;;;4960595;28;20273;-81
2022/08/16 07:59:59;;;;;;;3.30;2.22;;;34.30;70.10;;;;;;4959855;28;20208;-80
2022/08/16 08:02:26;;;;;;;5.40;2.50;;;34.90;67.60;;;;;;4976332;28;20209;-79
2022/08/16 08:04:51;;;;;;;2.60;2.40;;;35.10;68.00;;;;;;4960326;28;20217;-81
2022/08/16 08:07:17;;;;;;;4.03;2.20;;;35.10;68.20;;;;;;4976442;28;20170;-80
2022/08/16 08:09:43;;;;;;;9.98;2.95;;;35.20;68.10;;;;;;4976561;28;20276;-81
2022/08/16 08:12:08;;;;;;;7.18;2.55;;;35.30;66.40;;;;;;4960453;28;20193;-81
2022/08/16 08:14:34;;;;;;;2.40;2.20;;;35.30;65.60;;;;;;4960063;28;20217;-81
2022/08/16 08:17:00;;;;;;;6.10;2.50;;;35.50;67.30;;;;;;4960114;28;20637;-79
2022/08/16 08:19:25;;;;;;;4.55;2.40;;;34.80;66.80;;;;;;4976441;28;20177;-80
2022/08/16 08:21:52;;;;;;;4.63;2.50;;;34.60;66.40;;;;;;4977931;28;20212;-81
2022/08/16 08:24:19;;;;;;;9.85;2.50;;;35.00;66.70;;;;;;4960908;28;20213;-82
2022/08/16 08:26:45;;;;;;;2.50;1.92;;;35.30;66.60;;;;;;4978200;28;20177;-81
2022/08/16 08:29:10;;;;;;;5.68;2.13;;;34.30;66.20;;;;;;4960886;28;20173;-80
2022/08/16 08:31:36;;;;;;;4.70;2.60;;;33.20;67.80;;;;;;4978690;28;20673;-80
2022/08/16 08:34:06;;;;;;;4.07;2.33;;;33.90;68.00;;;;;;4979539;28;20248;-81
2022/08/16 08:36:34;;;;;;;5.07;2.20;;;33.80;67.90;;;;;;4979880;28;20180;-81
2022/08/16 08:38:59;;;;;;;4.38;2.20;;;34.00;67.40;;;;;;4961829;28;20722;-81
2022/08/16 08:41:27;;;;;;;5.03;2.60;;;34.10;67.60;;;;;;4978386;28;20251;-79
2022/08/16 08:43:54;;;;;;;8.13;2.70;;;34.40;65.10;;;;;;4962005;28;20228;-80
2022/08/16 08:46:21;;;;;;;6.82;2.58;;;33.10;67.80;;;;;;4962035;28;20245;-81
2022/08/16 08:48:47;;;;;;;3.33;2.20;;;33.20;70.60;;;;;;4961559;28;20661;-81
2022/08/16 08:51:13;;;;;;;2.53;2.33;;;33.90;69.20;;;;;;4962537;28;20198;-80
2022/08/16 08:53:38;;;;;;;2.30;2.10;;;34.20;67.80;;;;;;4980460;28;20188;-79
2022/08/16 08:56:08;;;;;;;4.28;2.58;;;34.80;66.40;;;;;;4962826;28;20197;-80
2022/08/16 08:58:35;;;;;;;2.88;2.50;;;34.80;67.80;;;;;;4961565;28;20311;-79
2022/08/16 09:01:02;;;;;;;3.17;2.33;;;34.90;67.20;;;;;;4962580;28;20810;-80
2022/08/16 09:03:28;;;;;;;3.17;2.67;;;33.50;67.90;;;;;;4979521;28;20237;-79
2022/08/16 09:05:53;;;;;;;4.60;2.58;;;32.40;69.00;;;;;;4977819;28;20178;-79
2022/08/16 09:08:19;;;;;;;3.17;2.77;;;31.60;72.10;;;;;;4978368;28;20716;-80
2022/08/16 09:10:45;;;;;;;5.70;2.20;;;32.00;73.40;;;;;;4961788;28;20196;-79
2022/08/16 09:13:10;;;;;;;3.23;2.90;;;33.40;70.00;;;;;;4978762;28;20166;-79
2022/08/16 09:15:37;;;;;;;6.90;2.73;;;33.60;67.00;;;;;;4979276;28;20188;-80
2022/08/16 09:18:04;;;;;;;4.20;2.67;;;31.90;68.50;;;;;;4978355;28;20177;-79
2022/08/16 09:20:30;;;;;;;5.20;2.33;;;30.00;73.40;;;;;;4979282;28;20520;-79
2022/08/16 09:22:57;;;;;;;5.13;2.60;;;29.80;77.20;;;;;;4978660;28;20448;-80
2022/08/16 09:25:25;;;;;;;4.40;2.53;;;29.90;78.50;;;;;;4978936;28;20484;-78
2022/08/16 09:27:51;;;;;;;4.87;2.27;;;31.00;78.30;;;;;;4978500;28;20905;-79
2022/08/16 09:30:16;;;;;;;3.40;2.43;;;32.50;72.50;;;;;;4961519;28;20410;-79
2022/08/16 09:32:42;;;;;;;6.63;2.43;;;32.40;70.50;;;;;;4978288;28;20437;-80
2022/08/16 09:35:08;;;;;;;5.17;2.50;;;31.80;70.70;;;;;;4961432;28;20185;-79
2022/08/16 09:37:34;;;;;;;3.70;2.10;;;31.20;73.40;;;;;;4979120;28;20177;-79
2022/08/16 09:40:00;;;;;;;8.87;2.70;;;30.30;73.80;;;;;;4960969;28;20249;-80
2022/08/16 09:42:27;;;;;;;3.73;2.20;;;29.80;75.60;;;;;;4978687;28;20189;-79
2022/08/16 09:44:52;;;;;;;3.63;2.60;;;29.80;75.60;;;;;;4961254;28;20464;-79
2022/08/16 09:47:18;;;;;;;5.67;2.80;;;29.70;74.40;;;;;;4961648;28;20424;-79
2022/08/16 09:49:43;;;;;;;2.63;2.43;;;29.80;75.80;;;;;;4977733;28;20225;-79
2022/08/16 09:52:10;;;;;;;5.60;2.60;;;29.60;75.70;;;;;;4977199;28;20197;-78
2022/08/16 09:54:36;;;;;;;3.70;2.70;;;28.30;76.80;;;;;;4960795;28;20346;-79
2022/08/16 09:57:03;;;;;;;3.30;2.27;;;29.00;76.00;;;;;;4961124;28;20933;-79
2022/08/16 09:59:30;;;;;;;3.60;2.40;;;30.00;75.80;;;;;;4977877;28;20417;-79
2022/08/16 10:01:55;;;;;;;4.80;2.53;;;29.20;74.60;;;;;;4978186;28;20451;-78
2022/08/16 10:04:21;;;;;;;4.93;2.60;;;29.00;77.70;;;;;;4978665;28;20449;-79
2022/08/16 10:06:48;;;;;;;3.83;2.30;;;28.90;76.50;;;;;;4978765;28;20172;-78
2022/08/16 10:09:14;;;;;;;3.17;2.10;;;28.60;78.40;;;;;;4978102;28;20498;-78
2022/08/16 10:14:29;;;;;;;2.90;2.60;;;28.90;76.30;;;;;;4978746;28;20403;-79
2022/08/16 10:16:59;;;;;;;4.83;2.23;;;28.20;78.10;;;;;;4974725;28;20810;-77
2022/08/16 10:19:25;;;;;;;5.50;2.60;;;27.60;80.10;;;;;;4973187;28;20416;-77
2022/08/16 10:21:52;;;;;;;3.20;2.90;;;28.20;81.50;;;;;;5187423;23;20489;-77
2022/08/16 10:24:18;;;;;;;3.17;2.40;;;29.10;76.40;;;;;;4955906;28;20209;-76
2022/08/16 10:26:44;;;;;;;3.37;2.60;;;28.90;76.40;;;;;;4973211;28;20413;-76
2022/08/16 10:29:10;;;;;;;4.67;2.60;;;27.90;77.80;;;;;;4972819;28;20169;-76
2022/08/16 10:31:36;;;;;;;8.70;3.20;;;27.80;78.50;;;;;;4973286;28;20552;-76
2022/08/16 10:34:01;;;;;;;4.43;2.23;;;27.80;79.10;;;;;;4973157;28;20504;-77
2022/08/16 10:36:28;;;;;;;3.70;2.53;;;28.30;76.70;;;;;;4973250;28;20181;-77
2022/08/16 10:38:53;;;;;;;8.23;2.87;;;28.50;76.50;;;;;;4955705;28;20657;-77
2022/08/16 10:41:19;;;;;;;2.67;2.30;;;28.50;76.40;;;;;;4972949;28;20465;-78
2022/08/16 10:43:45;;;;;;;2.50;2.13;;;28.90;75.80;;;;;;4976517;28;20204;-77
2022/08/16 10:46:12;;;;;;;3.10;2.67;;;28.90;76.50;;;;;;4977240;28;20504;-80
2022/08/16 10:48:40;;;;;;;3.00;2.00;;;28.80;76.60;;;;;;4959077;28;20204;-76
2022/08/16 10:51:06;;;;;;;6.60;2.33;;;29.30;74.90;;;;;;4976963;28;20463;-78
2022/08/16 10:53:32;;;;;;;4.63;2.30;;;29.30;74.40;;;;;;4977009;28;20424;-79
2022/08/16 10:55:59;;;;;;;3.63;2.03;;;29.30;74.40;;;;;;4976882;28;20313;-77
2022/08/16 10:58:25;;;;;;;4.33;2.53;;;30.30;73.70;;;;;;4976693;28;20870;-76
2022/08/16 11:00:52;;;;;;;3.40;2.00;;;31.10;70.70;;;;;;4976896;28;20495;-76
2022/08/16 11:03:18;;;;;;;3.03;2.27;;;30.20;73.50;;;;;;4976891;28;20928;-78
2022/08/16 11:05:44;;;;;;;3.17;2.43;;;29.10;74.30;;;;;;4976635;28;20460;-77
2022/08/16 11:08:13;;;;;;;2.40;2.20;;;29.40;75.50;;;;;;4976300;28;20416;-77
2022/08/16 11:10:42;;;;;;;3.00;2.20;;;30.40;73.10;;;;;;4959888;28;20201;-76
2022/08/16 11:13:10;;;;;;;3.17;2.50;;;31.20;70.80;;;;;;4957419;29;20487;-76
2022/08/16 11:15:36;;;;;;;2.47;2.03;;;31.50;71.60;;;;;;4957378;29;20409;-79
2022/08/16 11:18:02;;;;;;;2.33;2.13;;;31.80;69.30;;;;;;4956772;29;20421;-77
2022/08/16 11:20:28;;;;;;;4.53;2.50;;;31.80;69.70;;;;;;4957094;29;20184;-79
2022/08/16 11:22:54;;;;;;;2.43;2.00;;;30.80;70.20;;;;;;4957172;28;20509;-76
2022/08/16 11:25:24;;;;;;;5.67;2.50;;;29.50;72.10;;;;;;4956988;29;20543;-76
2022/08/16 11:27:51;;;;;;;10.73;2.20;;;28.90;74.30;;;;;;4956790;29;20186;-76
2022/08/16 11:30:17;;;;;;;7.60;2.40;;;28.80;74.40;;;;;;4957040;29;20417;-77
2022/08/16 11:32:43;;;;;;;9.57;2.30;;;28.90;73.80;;;;;;4957114;29;20484;-80
2022/08/16 11:35:12;;;;;;;2.63;2.33;;;28.80;73.90;;;;;;4956921;29;20182;-76
2022/08/16 11:37:38;;;;;;;3.03;2.30;;;28.70;75.10;;;;;;4956853;29;20194;-76
2022/08/16 11:40:06;;;;;;;4.80;2.33;;;29.00;76.90;;;;;;4958446;28;20426;-76
2022/08/16 11:42:32;;;;;;;11.40;2.60;;;29.40;75.10;;;;;;4958743;28;20448;-77
2022/08/16 11:44:57;;;;;;;2.80;2.50;;;29.90;74.00;;;;;;4958720;28;20461;-77
2022/08/16 11:47:23;;;;;;;8.60;2.47;;;29.60;74.20;;;;;;4976118;28;20417;-76
2022/08/16 11:49:48;;;;;;;4.40;2.60;;;29.10;75.30;;;;;;4975445;28;20190;-76
2022/08/16 11:52:16;;;;;;;5.67;2.17;;;29.00;76.30;;;;;;4975937;28;20213;-76
2022/08/16 11:54:42;;;;;;;2.80;2.37;;;29.60;75.20;;;;;;4974925;28;20590;-78
2022/08/16 11:57:08;;;;;;;5.77;2.50;;;30.00;75.90;;;;;;4975905;28;20496;-77
2022/08/16 11:59:35;;;;;;;4.97;2.70;;;30.00;74.50;;;;;;4975417;28;20503;-79
2022/08/16 12:02:00;;;;;;;2.63;2.20;;;30.00;73.50;;;;;;4975759;28;20190;-76
2022/08/16 12:04:26;;;;;;;3.83;1.83;;;30.00;73.20;;;;;;4975652;28;20903;-79
2022/08/16 12:06:52;;;;;;;3.33;2.10;;;30.00;72.20;;;;;;4975769;28;20253;-79
2022/08/16 12:09:18;;;;;;;5.33;2.47;;;29.80;73.10;;;;;;4969327;28;20498;-76
2022/08/16 12:11:44;;;;;;;2.50;2.00;;;29.60;72.40;;;;;;4956239;29;20297;-76
2022/08/16 12:14:09;;;;;;;4.53;1.90;;;29.70;73.30;;;;;;4956300;29;20937;-76
2022/08/16 12:16:36;;;;;;;5.43;2.10;;;30.00;71.80;;;;;;4956230;29;20177;-76
2022/08/16 12:19:04;;;;;;;4.57;2.10;;;29.70;72.90;;;;;;4955653;29;20253;-76
2022/08/16 12:21:29;;;;;;;2.50;2.30;;;29.70;74.00;;;;;;4938809;29;20837;-76
2022/08/16 12:23:55;;;;;;;3.80;2.30;;;29.80;74.10;;;;;;4956112;29;20458;-76
2022/08/16 12:26:22;;;;;;;4.07;2.23;;;29.80;73.50;;;;;;4955991;29;20187;-76
2022/08/16 12:28:50;;;;;;;2.97;2.20;;;30.00;74.00;;;;;;4955576;29;20171;-76
2022/08/16 12:31:15;;;;;;;5.43;2.33;;;30.00;73.10;;;;;;4955941;29;20426;-76
2022/08/16 12:33:42;;;;;;;9.77;2.53;;;30.10;72.80;;;;;;4955900;29;20413;-79
2022/08/16 12:36:08;;;;;;;7.97;2.60;;;29.70;73.50;;;;;;4955904;29;20201;-76
2022/08/16 12:38:33;;;;;;;4.70;3.07;;;29.50;73.30;;;;;;4955270;29;20414;-77
2022/08/16 12:41:00;;;;;;;2.93;2.53;;;29.80;74.10;;;;;;4965462;28;20194;-76
2022/08/16 12:43:25;;;;;;;2.47;2.23;;;30.20;72.30;;;;;;4975125;28;20170;-78
2022/08/16 12:45:54;;;;;;;2.80;2.20;;;30.30;72.70;;;;;;4974900;28;20457;-76
2022/08/16 12:51:11;;;;;;;2.50;2.30;;;31.00;70.70;;;;;;4975179;28;20991;-76
2022/08/16 12:53:37;;;;;;;3.87;2.73;;;30.60;70.50;;;;;;4974763;28;20413;-76
2022/08/16 12:56:04;;;;;;;3.40;2.20;;;30.10;72.10;;;;;;4974719;28;20417;-76
2022/08/16 12:58:30;;;;;;;2.27;2.07;;;29.70;71.80;;;;;;4974242;28;20419;-80
2022/08/16 13:00:56;;;;;;;4.70;2.30;;;29.60;73.20;;;;;;4974720;28;20437;-76
2022/08/16 13:03:21;;;;;;;4.93;2.17;;;29.70;71.00;;;;;;4974618;28;20201;-76
2022/08/16 13:05:49;;;;;;;2.57;2.20;;;29.40;74.00;;;;;;4974533;28;20492;-76
2022/08/16 13:08:17;;;;;;;2.50;2.30;;;29.50;72.20;;;;;;4974079;28;20178;-76
2022/08/16 13:10:47;;;;;;;6.73;2.40;;;29.50;73.10;;;;;;4957207;28;20489;-76
2022/08/16 13:13:23;;;;;;;2.50;2.23;;;29.30;73.20;;;;;;4955432;29;20406;-80
2022/08/16 13:15:50;;;;;;;2.57;2.37;;;29.20;73.90;;;;;;4955476;29;20438;-79
2022/08/16 13:18:16;;;;;;;4.20;2.40;;;29.60;72.90;;;;;;4954740;28;20418;-77
2022/08/16 13:20:41;;;;;;;2.40;2.20;;;30.20;71.30;;;;;;4955014;29;20520;-76
2022/08/16 13:23:10;;;;;;;3.93;2.37;;;30.10;71.60;;;;;;4955136;28;20214;-78
2022/08/16 13:25:39;;;;;;;2.63;2.20;;;29.80;73.40;;;;;;4955078;29;20288;-77
2022/08/16 13:28:05;;;;;;;2.80;2.10;;;29.60;71.70;;;;;;4954556;29;20406;-78
2022/08/16 13:30:34;;;;;;;6.50;2.77;;;29.40;72.40;;;;;;4954917;29;20437;-76
2022/08/16 13:32:59;;;;;;;4.30;2.00;;;29.20;74.40;;;;;;4954706;28;20182;-78
2022/08/16 13:35:25;;;;;;;3.30;2.13;;;29.10;74.50;;;;;;4954781;29;20414;-76
2022/08/16 13:37:51;;;;;;;3.77;2.50;;;28.90;75.30;;;;;;4954302;28;20182;-76
2022/08/16 13:40:17;;;;;;;2.77;2.30;;;28.80;76.00;;;;;;4958102;28;20173;-76
2022/08/16 13:42:43;;;;;;;2.33;2.13;;;28.70;74.80;;;;;;4973882;28;20178;-76
2022/08/16 13:45:10;;;;;;;6.63;2.60;;;28.80;76.10;;;;;;4973858;28;20460;-77
2022/08/16 13:47:35;;;;;;;4.53;2.40;;;28.80;75.90;;;;;;4973883;28;20578;-76
2022/08/16 13:50:01;;;;;;;3.53;2.10;;;28.80;76.10;;;;;;4973281;28;20418;-76
2022/08/16 13:52:26;;;;;;;3.67;2.53;;;28.60;76.10;;;;;;4973786;28;20653;-76
2022/08/16 13:54:52;;;;;;;2.73;2.50;;;28.50;76.90;;;;;;4973676;28;20598;-78
2022/08/16 13:57:18;;;;;;;3.10;1.87;;;28.40;77.00;;;;;;4973779;28;20207;-76
2022/08/16 13:59:43;;;;;;;4.63;2.30;;;28.30;77.20;;;;;;4973230;28;20565;-76
2022/08/16 14:02:10;;;;;;;3.13;2.10;;;28.50;75.90;;;;;;4973669;28;20193;-76
2022/08/16 14:04:38;;;;;;;3.50;2.33;;;28.60;76.20;;;;;;4973503;28;20201;-76
2022/08/16 14:07:05;;;;;;;4.50;2.50;;;28.50;76.20;;;;;;4973591;28;20464;-76
2022/08/16 14:09:33;;;;;;;6.37;2.60;;;28.30;77.00;;;;;;4965199;28;20430;-76
2022/08/16 14:12:00;;;;;;;8.83;2.47;;;28.40;77.10;;;;;;4954192;29;20432;-76
2022/08/16 14:14:26;;;;;;;3.40;2.00;;;28.40;76.70;;;;;;4954280;28;20418;-76
2022/08/16 14:16:52;;;;;;;9.80;2.43;;;28.40;76.50;;;;;;4953779;28;20418;-76
2022/08/16 14:19:18;;;;;;;9.13;2.70;;;28.40;77.00;;;;;;4953605;29;20414;-76
2022/08/16 14:21:44;;;;;;;4.53;2.40;;;28.20;77.10;;;;;;4953855;29;20221;-76
2022/08/16 14:24:13;;;;;;;4.00;1.97;;;28.30;78.40;;;;;;4954064;28;20194;-76
2022/08/16 14:26:40;;;;;;;2.80;2.30;;;28.30;76.70;;;;;;4954017;29;20501;-76
2022/08/16 14:29:05;;;;;;;3.97;2.23;;;28.20;76.00;;;;;;4953509;29;20414;-77
2022/08/16 14:31:31;;;;;;;5.50;2.00;;;28.10;76.80;;;;;;4953928;28;20437;-79
2022/08/16 14:33:57;;;;;;;5.20;2.73;;;28.10;76.40;;;;;;4953913;29;20566;-76
2022/08/16 14:36:23;;;;;;;2.90;2.40;;;27.90;77.30;;;;;;4954050;29;20178;-76
2022/08/16 14:38:48;;;;;;;6.43;2.63;;;27.80;76.70;;;;;;4936313;29;20178;-76
2022/08/16 14:41:14;;;;;;;2.30;2.10;;;27.70;76.50;;;;;;4953816;29;20273;-77
2022/08/16 14:43:39;;;;;;;5.20;2.50;;;27.70;77.30;;;;;;4953985;29;20686;-76
2022/08/16 14:46:05;;;;;;;2.63;2.10;;;27.80;76.90;;;;;;4953980;29;20175;-76
2022/08/16 14:48:30;;;;;;;3.10;2.10;;;27.90;77.80;;;;;;4953339;29;20225;-78
2022/08/16 14:50:57;;;;;;;5.70;2.30;;;28.10;77.70;;;;;;4953705;29;20561;-80
2022/08/16 14:53:24;;;;;;;6.97;2.30;;;28.20;78.10;;;;;;4953842;29;20170;-76
2022/08/16 14:55:49;;;;;;;2.57;2.20;;;28.70;77.20;;;;;;4953750;29;20854;-76
2022/08/16 14:58:16;;;;;;;2.20;2.00;;;28.80;76.20;;;;;;4953275;29;20422;-76
2022/08/16 15:00:41;;;;;;;2.27;2.00;;;28.80;76.70;;;;;;4953702;29;20190;-76
2022/08/16 15:03:09;;;;;;;5.57;2.07;;;28.80;75.80;;;;;;4953642;28;20418;-77
2022/08/16 15:05:35;;;;;;;3.13;2.10;;;28.90;75.60;;;;;;4953651;28;20190;-78
2022/08/16 15:08:01;;;;;;;4.30;2.70;;;28.80;74.80;;;;;;4953137;28;20406;-77
2022/08/16 15:10:28;;;;;;;3.20;2.13;;;28.70;75.80;;;;;;4951140;28;20929;-76
2022/08/16 15:12:54;;;;;;;3.40;2.27;;;28.80;76.80;;;;;;4972976;28;20465;-77
2022/08/16 15:15:22;;;;;;;6.53;2.30;;;28.60;74.90;;;;;;4972911;28;20479;-76
2022/08/16 15:17:48;;;;;;;5.03;2.10;;;28.40;75.70;;;;;;4955250;28;20417;-79
2022/08/16 15:20:14;;;;;;;2.73;2.00;;;28.50;75.60;;;;;;4972326;28;20979;-76
2022/08/16 15:22:43;;;;;;;5.30;2.20;;;28.70;74.00;;;;;;4972623;28;20433;-76
2022/08/16 15:25:16;;;;;;;4.23;2.00;;;28.60;75.40;;;;;;4972626;28;20964;-76
2022/08/16 15:27:43;;;;;;;4.33;1.80;;;28.60;75.30;;;;;;4972714;28;20436;-76
2022/08/16 15:30:19;;;;;;;4.17;2.10;;;28.50;73.60;;;;;;4974393;28;20409;-76
2022/08/16 15:32:44;;;;;;;3.60;2.10;;;28.60;75.60;;;;;;4976324;28;20405;-76
2022/08/16 15:35:11;;;;;;;4.50;1.90;;;28.60;75.00;;;;;;4958736;28;20423;-76
2022/08/16 15:37:37;;;;;;;5.43;1.97;;;29.00;73.70;;;;;;4976399;28;20205;-76
2022/08/16 15:40:06;;;;;;;5.73;2.30;;;29.70;72.80;;;;;;4973554;28;20464;-76
2022/08/16 15:42:33;;;;;;;4.50;2.07;;;29.70;71.70;;;;;;4956908;28;20189;-76
2022/08/16 15:44:59;;;;;;;9.83;2.40;;;29.50;72.80;;;;;;4956726;28;20460;-76
2022/08/16 15:47:26;;;;;;;4.90;1.80;;;29.30;72.90;;;;;;4956777;28;20781;-76
2022/08/16 15:49:53;;;;;;;2.97;1.80;;;28.80;73.60;;;;;;4956071;29;20460;-79
2022/08/16 15:52:47;;;;;;;1.50;1.40;;;28.40;74.00;;;;;;4956589;28;20786;-77
2022/08/16 15:55:13;;;;;;;6.57;1.80;;;28.20;75.50;;;;;;4954459;29;20433;-76
2022/08/16 15:57:39;;;;;;;4.70;1.80;;;28.10;75.70;;;;;;4956570;29;20414;-76
2022/08/16 16:00:07;;;;;;;2.50;1.80;;;28.00;75.20;;;;;;4938907;29;20647;-79
2022/08/16 16:02:33;;;;;;;5.33;2.40;;;27.80;75.40;;;;;;4956453;29;20204;-77
2022/08/16 16:05:06;;;;;;;6.90;2.13;;;27.70;75.40;;;;;;4956416;29;20485;-77
2022/08/16 16:07:32;;;;;;;3.60;2.03;;;28.00;76.00;;;;;;4939393;29;20785;-76
2022/08/16 16:09:59;;;;;;;4.90;1.80;;;28.70;74.90;;;;;;4938526;29;20918;-76
2022/08/16 16:12:25;;;;;;;3.90;1.50;;;28.80;72.70;;;;;;4956350;29;20521;-77
2022/08/16 16:14:51;;;;;;;8.70;3.33;;;28.50;73.40;;;;;;4957043;29;20421;-79
2022/08/16 16:17:16;;;;;;;4.00;1.50;;;28.40;72.50;;;;;;4959236;29;20410;-79
2022/08/16 16:19:42;;;;;;;2.70;1.73;;;28.20;73.30;;;;;;4957307;29;20174;-76
2022/08/16 16:22:07;;;;;;;5.63;1.60;;;28.10;74.30;;;;;;4938703;29;20637;-79
2022/08/16 16:24:32;;;;;;;3.43;2.00;;;28.20;74.50;;;;;;4956153;29;20209;-78
2022/08/16 16:26:58;;;;;;;1.97;1.40;;;28.10;74.80;;;;;;4961251;28;20186;-79
2022/08/16 16:29:23;;;;;;;2.33;1.90;;;28.00;74.40;;;;;;4960082;29;20174;-78
2022/08/16 16:31:49;;;;;;;7.03;2.10;;;27.70;73.80;;;;;;4960759;28;20186;-79
2022/08/16 16:34:14;;;;;;;2.27;1.60;;;27.50;74.60;;;;;;4960540;29;20178;-78
2022/08/16 16:36:40;;;;;;;4.60;1.57;;;27.30;76.40;;;;;;4944054;29;20178;-78
2022/08/16 16:39:08;;;;;;;4.40;2.47;;;27.00;77.60;;;;;;4942540;29;20555;-78
2022/08/16 16:41:34;;;;;;;3.20;1.60;;;27.00;77.00;;;;;;4974054;28;20193;-79
2022/08/16 16:44:00;;;;;;;5.83;1.73;;;26.80;77.00;;;;;;4977358;28;20814;-78
2022/08/16 16:46:34;;;;;;;3.27;1.63;;;26.70;77.20;;;;;;4977657;28;20405;-78